Time;durP1;ratioP1;P1;durP2;ratioP2;P2;SDS_P1;SDS_P2;PMS_P1;PMS_P2;Temp;Humidity;BMP_temperature;BMP_pressure;BME280_temperature;BME280_humidity;BME280_pressure;Samples;Min_cycle;Max_cycle;Signal;HPM_P1;HPM_P2
2022/12/28 00:01:26;;;;;;;12.45;4.40;;;;;;;5.10;100.00;101569.72;5021775;28;20509;-76
2022/12/28 00:03:53;;;;;;;10.07;4.30;;;;;;;5.09;100.00;101551.78;5028624;28;20041;-76
2022/12/28 00:06:20;;;;;;;4.32;3.65;;;;;;;5.11;100.00;101566.09;5027618;28;20033;-76
2022/12/28 00:08:46;;;;;;;11.05;4.53;;;;;;;5.13;100.00;101555.25;5021515;28;20117;-74
2022/12/28 00:11:15;;;;;;;8.07;3.92;;;;;;;5.14;100.00;101539.94;5008715;28;20128;-76
2022/12/28 00:13:41;;;;;;;8.63;3.78;;;;;;;5.16;100.00;101535.38;5008743;28;20026;-76
2022/12/28 00:16:09;;;;;;;13.18;4.65;;;;;;;5.15;100.00;101528.22;5007169;28;20041;-75
2022/12/28 00:18:36;;;;;;;10.32;4.05;;;;;;;5.16;100.00;101514.66;5008547;28;20046;-76
2022/12/28 00:21:02;;;;;;;7.82;4.00;;;;;;;5.18;100.00;101514.63;5007851;28;20053;-75
2022/12/28 00:23:28;;;;;;;10.77;3.70;;;;;;;5.16;100.00;101505.69;5008778;28;20045;-76
2022/12/28 00:25:53;;;;;;;6.50;3.47;;;;;;;5.12;100.00;101483.34;5008887;28;20045;-77
2022/12/28 00:28:19;;;;;;;6.25;4.05;;;;;;;5.11;100.00;101473.50;5009092;28;20022;-76
2022/12/28 00:30:45;;;;;;;5.80;4.05;;;;;;;5.09;100.00;101481.69;5024000;28;20120;-76
2022/12/28 00:33:11;;;;;;;8.18;4.28;;;;;;;5.08;100.00;101481.72;5027453;28;20183;-76
2022/12/28 00:35:37;;;;;;;8.25;4.03;;;;;;;5.07;100.00;101482.66;5022505;28;20389;-75
2022/12/28 00:38:02;;;;;;;10.85;4.53;;;;;;;5.07;100.00;101478.16;5007857;28;20025;-76
2022/12/28 00:40:28;;;;;;;10.95;4.10;;;;;;;5.09;100.00;101461.94;5008625;28;20038;-77
2022/12/28 00:42:53;;;;;;;7.65;4.03;;;;;;;5.11;100.00;101460.03;5007384;28;20040;-75
2022/12/28 00:45:18;;;;;;;10.15;4.47;;;;;;;5.13;100.00;101463.56;5022492;28;20065;-74
2022/12/28 00:47:44;;;;;;;9.25;4.53;;;;;;;5.16;100.00;101457.16;5009200;28;20119;-75
2022/12/28 00:50:10;;;;;;;8.77;4.65;;;;;;;5.19;100.00;101451.66;5006823;28;20030;-75
2022/12/28 00:52:36;;;;;;;10.00;5.05;;;;;;;5.22;100.00;101448.81;5028008;28;20052;-75
2022/12/28 00:55:01;;;;;;;13.98;4.32;;;;;;;5.23;100.00;101445.19;5025833;28;20455;-75
2022/12/28 00:57:27;;;;;;;9.38;4.15;;;;;;;5.23;100.00;101432.56;5027059;28;20021;-76
2022/12/28 00:59:52;;;;;;;11.63;4.90;;;;;;;5.25;100.00;101433.38;5015888;28;20043;-75
2022/12/28 01:02:18;;;;;;;6.80;4.00;;;;;;;5.26;100.00;101437.81;5007884;28;20046;-75
2022/12/28 01:04:43;;;;;;;8.85;4.07;;;;;;;5.28;100.00;101427.00;5007747;28;20068;-74
2022/12/28 01:07:08;;;;;;;7.57;3.97;;;;;;;5.29;100.00;101434.13;5026382;28;20045;-76
2022/12/28 01:09:34;;;;;;;8.82;4.20;;;;;;;5.30;100.00;101422.41;5013268;28;20088;-75
2022/12/28 01:11:59;;;;;;;10.70;4.75;;;;;;;5.32;100.00;101421.41;5007366;28;20433;-76
2022/12/28 01:14:25;;;;;;;8.45;4.03;;;;;;;5.33;100.00;101423.16;5019409;28;20046;-76
2022/12/28 01:16:50;;;;;;;6.72;4.05;;;;;;;5.36;100.00;101414.94;5007667;28;20116;-75
2022/12/28 01:19:20;;;;;;;8.73;4.35;;;;;;;5.36;100.00;101406.84;5007858;28;20070;-74
2022/12/28 01:21:50;;;;;;;9.30;4.00;;;;;;;5.38;100.00;101406.78;5022253;28;20040;-74
2022/12/28 01:24:16;;;;;;;6.95;3.80;;;;;;;5.40;100.00;101402.19;5008105;28;20033;-75
2022/12/28 01:26:41;;;;;;;8.93;3.85;;;;;;;5.42;100.00;101407.53;5006829;28;20346;-75
2022/12/28 01:29:07;;;;;;;7.35;3.60;;;;;;;5.45;100.00;101399.28;5006218;28;20104;-76
2022/12/28 01:31:32;;;;;;;7.20;3.95;;;;;;;5.44;100.00;101390.31;5011443;28;20125;-76
2022/12/28 01:33:58;;;;;;;6.20;3.53;;;;;;;5.47;100.00;101383.94;5005639;28;20061;-76
2022/12/28 01:36:26;;;;;;;6.63;3.95;;;;;;;5.49;100.00;101385.59;5013858;28;20022;-76
2022/12/28 01:38:56;;;;;;;6.47;3.92;;;;;;;5.53;100.00;101389.06;5007727;28;20486;-75
2022/12/28 01:41:23;;;;;;;7.45;4.20;;;;;;;5.52;100.00;101369.28;5006515;28;20033;-76
2022/12/28 01:43:51;;;;;;;8.25;3.88;;;;;;;5.56;100.00;101375.44;5007326;28;20029;-75
2022/12/28 01:46:23;;;;;;;6.80;3.80;;;;;;;5.58;100.00;101368.16;5007031;28;20038;-74
2022/12/28 01:49:03;;;;;;;7.60;3.92;;;;;;;5.61;100.00;101362.63;5005749;28;20041;-75
2022/12/28 01:51:40;;;;;;;10.10;3.63;;;;;;;5.62;100.00;101361.66;5005528;28;20044;-76
2022/12/28 01:54:05;;;;;;;5.60;3.35;;;;;;;5.64;100.00;101348.97;5014818;28;20489;-77
2022/12/28 01:56:31;;;;;;;9.98;3.97;;;;;;;5.67;100.00;101356.94;5025692;28;20028;-76
2022/12/28 01:58:57;;;;;;;9.57;3.83;;;;;;;5.71;100.00;101341.50;5021560;28;20045;-76
2022/12/28 02:01:23;;;;;;;6.22;3.83;;;;;;;5.71;100.00;101331.56;5025975;28;20041;-76
2022/12/28 02:03:49;;;;;;;8.23;3.72;;;;;;;5.75;100.00;101332.31;5006909;28;20369;-76
2022/12/28 02:06:15;;;;;;;5.68;4.15;;;;;;;5.77;100.00;101333.13;5015915;28;20152;-75
2022/12/28 02:09:01;;;;;;;11.30;4.65;;;;;;;5.79;100.00;101310.53;5006356;28;20030;-75
2022/12/28 02:11:28;;;;;;;8.52;4.10;;;;;;;5.81;100.00;101318.53;5005564;28;20036;-75
2022/12/28 02:13:56;;;;;;;10.82;4.32;;;;;;;5.82;100.00;101309.50;5005789;28;20688;-76
2022/12/28 02:16:22;;;;;;;6.82;4.00;;;;;;;5.84;100.00;101295.00;5006640;28;20048;-76
2022/12/28 02:18:48;;;;;;;7.72;4.10;;;;;;;5.86;100.00;101292.22;5006463;28;20482;-75
2022/12/28 02:21:35;;;;;;;6.38;3.83;;;;;;;5.91;100.00;101282.06;5018014;28;20037;-76
2022/12/28 02:24:25;;;;;;;11.63;4.13;;;;;;;5.93;100.00;101276.66;5005627;28;20038;-75
2022/12/28 02:27:12;;;;;;;10.98;4.15;;;;;;;5.94;100.00;101273.88;5010792;28;20034;-75
2022/12/28 02:29:46;;;;;;;6.85;3.95;;;;;;;5.94;100.00;101267.59;5011147;28;20137;-75
2022/12/28 02:32:25;;;;;;;5.38;3.35;;;;;;;5.95;100.00;101266.66;4993716;28;20034;-75
2022/12/28 02:35:09;;;;;;;5.22;3.85;;;;;;;5.97;100.00;101248.53;5009188;28;20038;-75
2022/12/28 02:37:49;;;;;;;5.85;4.07;;;;;;;5.97;100.00;101248.53;5013129;28;20449;-76
2022/12/28 02:40:28;;;;;;;7.53;3.50;;;;;;;5.97;100.00;101254.84;5009778;28;20096;-75
2022/12/28 02:42:56;;;;;;;9.27;3.92;;;;;;;5.98;100.00;101253.88;5011128;28;20030;-75
2022/12/28 02:51:16;;;;;;;7.30;4.00;;;;;;;6.00;100.00;101233.06;5041022;28;20430;-74
2022/12/28 02:54:02;;;;;;;8.55;4.28;;;;;;;6.00;100.00;101243.88;5010631;28;20026;-75
2022/12/28 02:56:28;;;;;;;6.75;4.85;;;;;;;5.99;100.00;101231.31;4993201;28;20444;-75
2022/12/28 02:59:24;;;;;;;6.75;4.38;;;;;;;5.99;100.00;101236.72;5009100;28;20044;-74
2022/12/28 03:02:16;;;;;;;8.45;4.30;;;;;;;5.97;100.00;101244.03;5008258;28;20038;-75
2022/12/28 03:04:52;;;;;;;10.65;4.85;;;;;;;5.98;100.00;101231.41;5008713;28;20037;-76
2022/12/28 03:10:34;;;;;;;7.32;4.63;;;;;;;5.96;100.00;101223.34;5011206;28;20042;-75
2022/12/28 03:13:41;;;;;;;6.70;4.45;;;;;;;5.95;100.00;101220.72;5017040;28;20037;-75
2022/12/28 03:15:54;;;;;;;6.53;4.10;;;;;;;5.98;100.00;101224.19;5023749;28;20038;-76
2022/12/28 03:32:26;;;;;;;7.63;4.95;;;;;;;6.04;100.00;101187.88;5012278;28;20041;-75
2022/12/28 03:34:51;;;;;;;6.45;4.88;;;;;;;6.05;100.00;101185.09;4991566;28;20037;-75
2022/12/28 03:37:24;;;;;;;7.03;4.57;;;;;;;6.06;100.00;101186.88;5008824;28;20022;-75
2022/12/28 03:40:25;;;;;;;9.57;4.05;;;;;;;6.09;100.00;101202.91;5023416;28;20033;-75
2022/12/28 03:45:49;;;;;;;7.30;4.70;;;;;;;6.13;100.00;101187.44;5009597;28;20040;-76
2022/12/28 03:48:16;;;;;;;9.57;5.47;;;;;;;6.16;100.00;101173.81;5011677;28;20192;-76
2022/12/28 03:50:47;;;;;;;7.68;5.00;;;;;;;6.18;100.00;101169.19;5027329;28;20044;-75
2022/12/28 03:53:21;;;;;;;8.15;5.38;;;;;;;6.20;100.00;101163.69;5026122;28;20080;-76
2022/12/28 03:55:50;;;;;;;8.95;5.32;;;;;;;6.20;100.00;101172.72;5008191;28;20072;-75
2022/12/28 03:58:20;;;;;;;9.65;5.28;;;;;;;6.23;100.00;101167.13;5023858;28;20048;-74
2022/12/28 04:00:45;;;;;;;7.75;4.90;;;;;;;6.27;100.00;101163.34;5009467;28;20034;-76
2022/12/28 04:03:11;;;;;;;10.13;5.18;;;;;;;6.29;100.00;101164.13;4992442;28;20073;-76
2022/12/28 04:05:37;;;;;;;9.07;5.43;;;;;;;6.31;100.00;101167.63;5011921;28;20421;-75
2022/12/28 04:08:02;;;;;;;13.60;5.65;;;;;;;6.33;100.00;101164.84;5026423;28;20037;-75
2022/12/28 04:10:28;;;;;;;9.50;5.28;;;;;;;6.35;100.00;101154.84;5007819;28;20033;-75
2022/12/28 04:12:55;;;;;;;10.45;5.72;;;;;;;6.40;100.00;101163.59;5008145;28;20366;-76
2022/12/28 04:15:54;;;;;;;7.05;4.95;;;;;;;6.44;100.00;101159.81;5009398;28;20439;-75
2022/12/28 04:18:19;;;;;;;9.55;4.82;;;;;;;6.47;100.00;101153.34;5058796;28;20389;-75
2022/12/28 04:20:45;;;;;;;8.15;4.95;;;;;;;6.52;100.00;101164.78;5024071;28;20037;-76
2022/12/28 04:23:10;;;;;;;8.30;5.10;;;;;;;6.51;100.00;101160.34;5008388;28;20064;-76
2022/12/28 04:25:36;;;;;;;8.43;4.60;;;;;;;6.55;100.00;101156.53;5027969;28;20501;-75
2022/12/28 04:28:02;;;;;;;7.40;4.75;;;;;;;6.59;100.00;101163.56;5048780;28;20063;-75
2022/12/28 04:30:51;;;;;;;11.23;4.65;;;;;;;6.62;100.00;101161.56;5007023;28;20131;-76
2022/12/28 04:33:16;;;;;;;12.65;6.05;;;;;;;6.64;100.00;101153.38;5024690;28;20033;-75
2022/12/28 04:35:45;;;;;;;9.75;4.63;;;;;;;6.65;100.00;101156.00;5010831;28;20037;-75
2022/12/28 04:38:11;;;;;;;9.85;4.50;;;;;;;6.69;100.00;101150.44;5006937;28;20025;-75
2022/12/28 04:40:36;;;;;;;9.15;5.30;;;;;;;6.70;100.00;101150.34;5008706;28;20128;-75
2022/12/28 04:43:01;;;;;;;4.80;4.13;;;;;;;6.69;100.00;101145.03;5008561;28;20041;-76
2022/12/28 04:45:26;;;;;;;8.00;4.60;;;;;;;6.71;100.00;101152.09;5008269;28;20535;-76
2022/12/28 04:47:56;;;;;;;5.20;4.50;;;;;;;6.74;100.00;101151.94;5026220;28;20553;-75
2022/12/28 04:50:21;;;;;;;13.10;4.88;;;;;;;6.75;100.00;101161.81;5027806;28;20068;-76
2022/12/28 04:52:47;;;;;;;6.85;4.15;;;;;;;6.74;100.00;101146.53;5023377;28;20501;-74
2022/12/28 04:55:12;;;;;;;8.43;4.68;;;;;;;6.78;100.00;101141.84;5026272;28;20484;-76
2022/12/28 04:57:37;;;;;;;6.60;4.22;;;;;;;6.81;100.00;101163.34;5019303;28;20022;-75
2022/12/28 05:00:03;;;;;;;11.43;5.43;;;;;;;6.81;100.00;101150.69;5012793;28;20117;-75
2022/12/28 05:02:30;;;;;;;11.73;6.13;;;;;;;6.82;100.00;101154.25;5039854;28;20038;-76
2022/12/28 05:04:55;;;;;;;7.97;4.43;;;;;;;6.87;100.00;101146.78;5008183;28;20029;-75
2022/12/28 05:07:20;;;;;;;6.30;4.68;;;;;;;6.85;100.00;101144.16;5057212;28;20028;-76
2022/12/28 05:09:46;;;;;;;7.60;5.00;;;;;;;6.89;100.00;101143.03;5008578;28;20038;-76
2022/12/28 05:12:11;;;;;;;6.85;4.68;;;;;;;6.89;100.00;101136.75;5008337;28;20038;-76
2022/12/28 05:14:36;;;;;;;9.27;4.63;;;;;;;6.87;100.00;101123.31;5008285;28;20128;-76
2022/12/28 05:17:02;;;;;;;8.27;4.65;;;;;;;6.87;100.00;101139.53;5008304;28;20500;-75
2022/12/28 05:19:27;;;;;;;7.28;5.55;;;;;;;6.90;100.00;101131.28;5007163;28;20046;-75
2022/12/28 05:21:52;;;;;;;8.13;5.75;;;;;;;6.92;100.00;101141.13;5007577;28;20045;-76
2022/12/28 05:24:19;;;;;;;9.75;4.85;;;;;;;6.89;100.00;101140.31;5016245;28;20051;-77
2022/12/28 05:26:44;;;;;;;9.40;5.35;;;;;;;6.90;100.00;101133.97;5028177;28;20060;-75
2022/12/28 05:29:09;;;;;;;7.47;4.80;;;;;;;6.92;100.00;101136.59;5021447;28;20489;-76
2022/12/28 05:31:36;;;;;;;9.75;4.28;;;;;;;6.93;100.00;101132.06;5008348;28;20053;-76
2022/12/28 05:34:01;;;;;;;8.10;4.82;;;;;;;6.92;100.00;101131.19;5007335;28;20515;-76
2022/12/28 05:36:27;;;;;;;7.57;4.72;;;;;;;6.95;100.00;101140.94;5020249;28;20029;-76
2022/12/28 05:38:54;;;;;;;10.20;4.95;;;;;;;6.96;100.00;101143.59;5019971;28;20113;-76
2022/12/28 05:41:25;;;;;;;9.38;5.68;;;;;;;6.98;100.00;101144.38;5007831;28;20096;-76
2022/12/28 05:43:50;;;;;;;8.15;4.70;;;;;;;6.99;100.00;101139.84;5008633;28;20080;-75
2022/12/28 05:46:19;;;;;;;8.10;4.72;;;;;;;7.00;100.00;101144.31;5021576;28;20045;-75
2022/12/28 05:48:46;;;;;;;8.32;4.53;;;;;;;7.01;100.00;101140.66;5039791;28;20030;-75
2022/12/28 05:51:13;;;;;;;5.95;3.97;;;;;;;7.02;100.00;101142.38;5006627;28;20037;-74
2022/12/28 05:53:40;;;;;;;6.88;4.15;;;;;;;7.03;100.00;101141.44;5006975;28;20053;-74
2022/12/28 05:56:20;;;;;;;9.60;4.68;;;;;;;7.04;100.00;101130.56;5007676;28;20033;-75
2022/12/28 05:58:52;;;;;;;12.52;4.65;;;;;;;7.05;100.00;101123.31;5007332;28;20046;-76
2022/12/28 06:01:20;;;;;;;5.60;3.95;;;;;;;7.06;100.00;101117.81;5011733;28;20555;-74
2022/12/28 06:03:47;;;;;;;7.65;4.28;;;;;;;7.07;100.00;101111.44;5027268;28;20040;-75
2022/12/28 06:06:14;;;;;;;6.60;4.28;;;;;;;7.08;100.00;101109.59;5025865;28;20065;-75
2022/12/28 06:08:41;;;;;;;5.70;3.70;;;;;;;7.09;100.00;101098.72;5010312;28;20501;-75
2022/12/28 06:11:09;;;;;;;4.65;3.60;;;;;;;7.10;100.00;101097.75;5005652;28;20141;-75
2022/12/28 06:13:35;;;;;;;8.93;3.60;;;;;;;7.11;100.00;101094.06;5007303;28;20052;-75
2022/12/28 06:16:10;;;;;;;7.00;4.50;;;;;;;7.12;100.00;101084.13;5006999;28;20050;-75
2022/12/28 06:18:35;;;;;;;10.20;5.78;;;;;;;7.12;100.00;101086.84;5006925;28;20060;-75
2022/12/28 06:21:12;;;;;;;7.32;3.78;;;;;;;7.15;100.00;101084.84;5006194;28;20546;-76
2022/12/28 06:23:37;;;;;;;7.70;4.82;;;;;;;7.14;100.00;101084.94;5006865;28;20344;-76
2022/12/28 06:26:04;;;;;;;7.93;3.92;;;;;;;7.15;100.00;101087.53;5005915;28;20025;-75
2022/12/28 06:28:30;;;;;;;4.93;3.38;;;;;;;7.17;100.00;101090.16;5006386;28;20088;-75
2022/12/28 06:31:09;;;;;;;5.47;3.58;;;;;;;7.20;100.00;101078.31;5006995;28;20444;-74
2022/12/28 06:33:34;;;;;;;4.72;3.22;;;;;;;7.21;100.00;101074.63;5004862;28;20559;-76
2022/12/28 06:35:59;;;;;;;8.40;4.00;;;;;;;7.16;100.00;101067.66;5007265;28;20037;-76
2022/12/28 06:38:26;;;;;;;6.43;3.92;;;;;;;7.20;100.00;101078.31;5005145;28;20533;-75
2022/12/28 06:40:51;;;;;;;4.78;3.55;;;;;;;7.22;100.00;101073.69;5005729;28;20113;-77
2022/12/28 06:43:17;;;;;;;4.82;4.25;;;;;;;7.21;100.00;101083.63;5005304;28;20169;-75
2022/12/28 06:45:42;;;;;;;5.43;3.83;;;;;;;7.19;100.00;101072.03;5005242;28;20029;-76
2022/12/28 06:48:08;;;;;;;5.72;3.72;;;;;;;7.22;100.00;101081.78;5005773;28;20084;-75
2022/12/28 06:50:33;;;;;;;5.45;3.90;;;;;;;7.21;100.00;101075.50;5004072;28;20037;-76
2022/12/28 06:52:58;;;;;;;5.43;3.58;;;;;;;7.25;100.00;101073.50;5005772;28;20038;-76
2022/12/28 06:55:24;;;;;;;5.50;3.60;;;;;;;7.26;100.00;101086.94;5011344;28;20021;-75
2022/12/28 06:57:49;;;;;;;5.50;3.85;;;;;;;7.26;100.00;101069.84;5021030;28;20092;-75
2022/12/28 07:00:15;;;;;;;7.03;3.83;;;;;;;7.26;100.00;101069.84;5037634;28;20026;-75
2022/12/28 07:02:40;;;;;;;6.63;3.90;;;;;;;7.28;100.00;101068.81;5005734;28;20037;-75
2022/12/28 07:05:06;;;;;;;8.38;4.18;;;;;;;7.29;100.00;101066.97;5005900;28;20045;-76
2022/12/28 07:07:31;;;;;;;8.80;4.55;;;;;;;7.30;100.00;101063.31;5004778;28;20037;-77
2022/12/28 07:09:56;;;;;;;8.25;3.97;;;;;;;7.29;100.00;101066.97;5007366;28;20041;-75
2022/12/28 07:12:22;;;;;;;7.13;4.03;;;;;;;7.29;100.00;101059.72;5007694;28;20026;-75
2022/12/28 07:14:47;;;;;;;6.72;4.07;;;;;;;7.32;100.00;101062.28;5009175;28;20042;-74
2022/12/28 07:17:12;;;;;;;10.38;4.00;;;;;;;7.32;100.00;101064.09;5041131;28;20494;-76
2022/12/28 07:19:38;;;;;;;5.75;4.28;;;;;;;7.32;100.00;101066.78;5008422;28;20038;-75
2022/12/28 07:22:03;;;;;;;8.98;3.95;;;;;;;7.35;100.00;101064.78;5008416;28;20128;-76
2022/12/28 07:24:28;;;;;;;7.88;4.32;;;;;;;7.35;100.00;101063.94;5008790;28;20458;-75
2022/12/28 07:26:54;;;;;;;7.70;4.30;;;;;;;7.35;100.00;101058.50;5008906;28;20381;-75
2022/12/28 07:29:19;;;;;;;6.78;3.80;;;;;;;7.36;100.00;101061.13;5023047;28;20505;-76
2022/12/28 07:31:44;;;;;;;5.63;4.07;;;;;;;7.36;100.00;101057.53;5009280;28;20441;-75
2022/12/28 07:34:11;;;;;;;7.60;4.80;;;;;;;7.38;100.00;101052.94;5006917;28;20105;-75
2022/12/28 07:36:36;;;;;;;7.30;4.18;;;;;;;7.39;100.00;101060.97;5008731;28;20038;-75
2022/12/28 07:39:02;;;;;;;7.32;4.32;;;;;;;7.40;100.00;101059.13;5022654;28;20047;-75
2022/12/28 07:41:31;;;;;;;5.38;3.70;;;;;;;7.41;100.00;101055.44;5007532;28;20265;-75
2022/12/28 07:43:57;;;;;;;9.05;4.00;;;;;;;7.43;100.00;101058.09;5008216;28;20034;-75
2022/12/28 07:46:26;;;;;;;5.65;3.85;;;;;;;7.42;100.00;101046.41;5008952;28;20040;-75
2022/12/28 07:48:52;;;;;;;5.68;3.53;;;;;;;7.43;100.00;101060.81;5009037;28;20037;-75
2022/12/28 07:51:19;;;;;;;5.85;4.00;;;;;;;7.47;100.00;101070.50;5009481;28;20041;-75
2022/12/28 07:53:46;;;;;;;6.63;3.92;;;;;;;7.47;100.00;101057.84;5010455;28;20076;-76
2022/12/28 07:56:13;;;;;;;8.35;3.60;;;;;;;7.46;100.00;101058.81;5009997;28;20044;-75
2022/12/28 07:58:38;;;;;;;4.95;4.05;;;;;;;7.47;100.00;101059.69;5009747;28;20132;-76
2022/12/28 08:01:14;;;;;;;5.15;3.95;;;;;;;7.49;100.00;101060.44;5040817;28;20498;-75
2022/12/28 08:03:40;;;;;;;4.35;3.67;;;;;;;7.50;100.00;101054.94;5007512;28;20041;-76
2022/12/28 08:06:19;;;;;;;5.60;3.80;;;;;;;7.51;100.00;101066.66;5007159;28;20390;-76
2022/12/28 08:08:46;;;;;;;5.95;3.72;;;;;;;7.52;100.00;101061.16;5014456;28;20037;-76
2022/12/28 08:11:15;;;;;;;8.27;4.10;;;;;;;7.54;100.00;101058.34;5010731;28;20078;-75
2022/12/28 08:13:44;;;;;;;8.77;3.80;;;;;;;7.54;100.00;101058.34;5009795;28;20405;-75
2022/12/28 08:16:11;;;;;;;5.25;3.85;;;;;;;7.54;100.00;101053.81;5024554;28;20045;-75
2022/12/28 08:18:38;;;;;;;9.65;4.70;;;;;;;7.51;100.00;101054.00;5013950;28;20134;-77
2022/12/28 08:21:09;;;;;;;5.45;4.00;;;;;;;7.56;100.00;101051.03;5018768;28;20118;-76
2022/12/28 08:23:34;;;;;;;8.25;4.10;;;;;;;7.58;100.00;101051.81;5013543;28;20036;-75
2022/12/28 08:26:13;;;;;;;8.27;4.40;;;;;;;7.58;100.00;101046.41;5012544;28;20045;-76
2022/12/28 08:28:39;;;;;;;7.20;3.83;;;;;;;7.59;100.00;101051.72;5009422;28;20596;-78
2022/12/28 08:31:11;;;;;;;4.07;3.63;;;;;;;7.59;100.00;101048.13;4991062;28;20112;-75
2022/12/28 08:33:37;;;;;;;6.63;4.30;;;;;;;7.62;100.00;101047.97;5007074;28;20563;-76
2022/12/28 08:36:04;;;;;;;8.57;3.95;;;;;;;7.63;100.00;101038.88;5013850;28;20075;-76
2022/12/28 08:38:29;;;;;;;7.68;4.20;;;;;;;7.64;100.00;101049.59;5011096;28;20043;-75
2022/12/28 08:41:00;;;;;;;8.23;3.97;;;;;;;7.63;100.00;101042.47;5011208;28;20125;-76
2022/12/28 08:43:27;;;;;;;10.85;4.22;;;;;;;7.67;100.00;101041.31;5012999;28;20045;-76
2022/12/28 08:46:00;;;;;;;9.73;4.15;;;;;;;7.67;100.00;101041.31;5008443;28;20029;-75
2022/12/28 08:48:27;;;;;;;6.57;4.13;;;;;;;7.69;100.00;101043.94;5027342;28;20090;-76
2022/12/28 08:50:53;;;;;;;7.03;3.92;;;;;;;7.71;100.00;101043.88;5011660;28;20029;-76
2022/12/28 08:53:20;;;;;;;5.70;3.85;;;;;;;7.71;100.00;101047.44;5009072;28;20054;-75
2022/12/28 08:55:46;;;;;;;17.20;4.22;;;;;;;7.73;100.00;101042.81;5027370;28;20120;-75
2022/12/28 08:58:12;;;;;;;7.30;4.18;;;;;;;7.73;100.00;101047.34;5060311;28;20044;-76
2022/12/28 09:00:37;;;;;;;13.13;4.15;;;;;;;7.74;100.00;101046.38;5023411;28;20033;-76
2022/12/28 09:03:02;;;;;;;6.05;3.65;;;;;;;7.72;100.00;101037.47;5007219;28;20042;-75
2022/12/28 09:05:28;;;;;;;7.70;3.83;;;;;;;7.74;100.00;101050.00;5007351;28;20042;-76
2022/12/28 09:07:54;;;;;;;7.88;3.75;;;;;;;7.74;100.00;101046.38;5008184;28;20034;-75
2022/12/28 09:10:20;;;;;;;7.65;3.95;;;;;;;7.74;100.00;101043.66;5007978;28;20062;-76
2022/12/28 09:12:45;;;;;;;4.20;3.17;;;;;;;7.74;100.00;101046.38;5009023;28;20060;-76
2022/12/28 09:15:10;;;;;;;12.60;4.15;;;;;;;7.74;100.00;101039.16;5043998;28;20057;-76
2022/12/28 09:17:36;;;;;;;6.63;4.10;;;;;;;7.75;100.00;101050.84;5011967;28;20057;-75
2022/12/28 09:20:01;;;;;;;7.40;3.53;;;;;;;7.73;100.00;101047.34;5007275;28;20057;-76
2022/12/28 09:22:29;;;;;;;8.23;4.15;;;;;;;7.75;100.00;101045.44;5021265;28;20045;-76
2022/12/28 09:24:54;;;;;;;5.15;3.65;;;;;;;7.74;100.00;101043.66;5025096;28;20440;-76
2022/12/28 09:27:19;;;;;;;11.50;3.97;;;;;;;7.77;100.00;101055.22;5027812;28;20038;-76
2022/12/28 09:29:45;;;;;;;6.05;3.13;;;;;;;7.78;100.00;101048.81;5019516;28;20128;-77
2022/12/28 09:32:10;;;;;;;9.68;3.75;;;;;;;7.77;100.00;101038.09;5007679;28;20497;-76
2022/12/28 09:34:35;;;;;;;6.20;3.40;;;;;;;7.76;100.00;101039.94;5005899;28;20049;-76
2022/12/28 09:37:01;;;;;;;5.28;3.20;;;;;;;7.81;100.00;101039.66;5036489;28;20026;-75
2022/12/28 09:39:26;;;;;;;5.93;3.22;;;;;;;7.82;100.00;101044.09;5038835;28;20093;-76
2022/12/28 09:42:24;;;;;;;9.77;3.95;;;;;;;7.85;100.00;101047.53;5007652;28;20034;-77
2022/12/28 09:45:20;;;;;;;6.30;3.25;;;;;;;7.89;100.00;101040.97;5010496;28;20421;-76
2022/12/28 09:47:50;;;;;;;7.40;3.30;;;;;;;7.89;100.00;101050.94;5006343;28;20053;-76
2022/12/28 09:50:15;;;;;;;7.57;2.78;;;;;;;7.92;100.00;101042.59;5006097;28;20396;-76
2022/12/28 09:53:15;;;;;;;4.07;2.90;;;;;;;7.94;100.00;101035.28;4989125;28;20468;-76
2022/12/28 09:55:47;;;;;;;5.97;2.88;;;;;;;7.93;100.00;101038.97;5026034;28;20073;-76
2022/12/28 09:58:15;;;;;;;5.10;2.95;;;;;;;7.98;100.00;101046.81;5027789;28;20037;-77
2022/12/28 10:00:44;;;;;;;4.65;3.25;;;;;;;7.98;100.00;101035.97;5022103;28;20026;-76
2022/12/28 10:03:39;;;;;;;3.38;2.70;;;;;;;8.02;100.00;101043.84;5026526;28;20052;-76
2022/12/28 10:06:16;;;;;;;3.67;2.80;;;;;;;8.02;100.00;101040.22;5014746;28;20488;-75
2022/12/28 10:08:47;;;;;;;6.72;3.03;;;;;;;8.05;100.00;101040.06;5021622;28;20113;-77
2022/12/28 10:11:19;;;;;;;7.85;2.70;;;;;;;8.05;100.00;101037.34;5008795;28;20037;-76
2022/12/28 10:13:45;;;;;;;4.00;2.50;;;;;;;8.06;100.00;101018.28;5019278;28;20469;-75
2022/12/28 10:16:19;;;;;;;6.13;2.65;;;;;;;8.08;100.00;101029.94;5008527;28;20513;-76
2022/12/28 10:18:47;;;;;;;2.42;2.22;;;;;;;8.09;100.00;101034.38;5007096;28;20116;-75
2022/12/28 10:21:14;;;;;;;4.80;2.40;;;;;;;8.09;100.00;101022.66;5019895;28;20041;-75
2022/12/28 10:23:42;;;;;;;4.35;2.40;;;;;;;8.10;100.00;101035.25;5008871;28;20030;-75
2022/12/28 10:26:14;;;;;;;2.60;2.40;;;;;;;8.10;100.00;101029.81;5023221;28;20041;-76
2022/12/28 10:28:46;;;;;;;5.70;2.70;;;;;;;8.11;100.00;101023.44;5021376;28;20441;-76
2022/12/28 10:31:11;;;;;;;4.72;2.30;;;;;;;8.12;100.00;101019.78;5008618;28;20037;-76
2022/12/28 10:33:47;;;;;;;3.40;1.80;;;;;;;8.13;100.00;101024.22;5026094;28;20254;-75
2022/12/28 10:36:14;;;;;;;2.40;2.10;;;;;;;8.14;100.00;101021.41;5022628;28;20088;-75
2022/12/28 10:38:49;;;;;;;2.92;2.28;;;;;;;8.16;100.00;101016.81;5011363;28;20022;-76
2022/12/28 10:41:17;;;;;;;4.60;2.38;;;;;;;8.14;100.00;101009.72;5008003;28;20463;-75
2022/12/28 10:43:49;;;;;;;2.92;2.63;;;;;;;8.17;100.00;101013.13;5009860;28;20025;-75
2022/12/28 10:46:20;;;;;;;7.07;3.53;;;;;;;8.18;100.00;101008.56;5025232;28;20496;-77
2022/12/28 10:48:53;;;;;;;3.00;2.60;;;;;;;8.18;100.00;101008.56;5010680;28;20824;-76
2022/12/28 10:51:23;;;;;;;4.10;2.58;;;;;;;8.17;100.00;101005.00;5009614;28;20145;-76
2022/12/28 10:53:51;;;;;;;3.88;2.90;;;;;;;8.20;100.00;101009.34;5010526;28;20088;-76
2022/12/28 10:56:28;;;;;;;5.70;2.88;;;;;;;8.20;100.00;101012.03;5009987;28;20504;-76
2022/12/28 10:59:08;;;;;;;5.25;3.10;;;;;;;8.19;100.00;101005.75;5009397;28;20049;-76
2022/12/28 11:01:34;;;;;;;7.40;3.10;;;;;;;8.21;100.00;101000.25;5011016;28;20053;-76
2022/12/28 11:03:59;;;;;;;3.70;2.50;;;;;;;8.22;100.00;100993.00;5007199;28;20183;-76
2022/12/28 11:06:30;;;;;;;5.65;2.70;;;;;;;8.23;100.00;100994.75;5020149;28;20132;-77
2022/12/28 11:09:05;;;;;;;3.58;2.55;;;;;;;8.23;100.00;100994.75;5020653;28;20029;-77
2022/12/28 11:11:31;;;;;;;3.10;2.42;;;;;;;8.22;100.00;100991.16;5024824;28;20034;-77
2022/12/28 11:14:05;;;;;;;8.10;3.00;;;;;;;8.20;100.00;100995.78;5023038;28;20084;-75
2022/12/28 11:16:35;;;;;;;7.45;3.40;;;;;;;8.23;100.00;100998.31;5010865;28;20030;-76
2022/12/28 11:19:00;;;;;;;4.82;3.00;;;;;;;8.21;100.00;100986.72;5020424;28;20045;-76
2022/12/28 11:21:26;;;;;;;5.45;2.97;;;;;;;8.22;100.00;100983.03;5016195;28;20038;-76
2022/12/28 11:23:52;;;;;;;5.10;3.25;;;;;;;8.24;100.00;100986.50;5020522;28;20046;-77
2022/12/28 11:26:19;;;;;;;5.38;2.65;;;;;;;8.25;100.00;100984.66;5020351;28;20044;-75
2022/12/28 11:28:48;;;;;;;13.98;3.67;;;;;;;8.25;100.00;100973.81;5011246;28;20065;-75
2022/12/28 11:31:21;;;;;;;7.22;2.83;;;;;;;8.27;100.00;100967.34;5013109;28;20030;-76
2022/12/28 11:33:55;;;;;;;3.85;2.90;;;;;;;8.30;100.00;100966.28;5008248;28;20070;-77
2022/12/28 11:36:24;;;;;;;4.05;2.75;;;;;;;8.30;100.00;100953.63;5020806;28;20038;-77
2022/12/28 11:38:51;;;;;;;5.38;2.97;;;;;;;8.34;100.00;100957.00;5014185;28;20083;-76
2022/12/28 11:41:23;;;;;;;6.15;2.92;;;;;;;8.34;100.00;100955.16;5010170;28;20072;-75
2022/12/28 11:43:57;;;;;;;5.38;2.90;;;;;;;8.36;100.00;100957.81;5015220;28;20045;-76
2022/12/28 11:46:22;;;;;;;4.18;3.33;;;;;;;8.36;100.00;100944.25;5017500;28;20509;-76
2022/12/28 11:48:58;;;;;;;4.35;2.45;;;;;;;8.36;100.00;100946.97;5026122;28;20049;-74
2022/12/28 11:51:25;;;;;;;6.25;2.95;;;;;;;8.36;100.00;100941.53;5014148;28;20094;-77
2022/12/28 11:53:50;;;;;;;6.10;3.15;;;;;;;8.36;100.00;100938.81;5014026;28;20107;-76
2022/12/28 11:56:18;;;;;;;3.53;2.60;;;;;;;8.36;100.00;100936.13;5028420;28;20804;-77
2022/12/28 11:58:57;;;;;;;6.03;2.70;;;;;;;8.34;100.00;100928.06;5021857;28;20037;-76